Time;durP1;ratioP1;P1;durP2;ratioP2;P2;SDS_P1;SDS_P2;PMS_P1;PMS_P2;Temp;Humidity;BMP_temperature;BMP_pressure;BME280_temperature;BME280_humidity;BME280_pressure;Samples;Min_cycle;Max_cycle;Signal;HPM_P1;HPM_P2
2022/08/04 00:00:59;;;;;;;7.93;5.80;;;23.60;79.80;;;;;;2096724;28;20524;-72
2022/08/04 00:02:12;;;;;;;7.20;5.90;;;23.50;79.90;;;;;;2099178;28;20024;-72
2022/08/04 00:03:18;;;;;;;6.90;6.25;;;23.50;80.20;;;;;;2096756;28;20167;-72
2022/08/04 00:04:28;;;;;;;6.38;5.78;;;23.50;80.20;;;;;;2097670;28;20028;-73
2022/08/04 00:05:30;;;;;;;8.53;5.97;;;23.50;80.30;;;;;;2096756;28;20150;-72
2022/08/04 00:06:51;;;;;;;6.35;5.75;;;23.50;80.20;;;;;;2097148;28;20270;-73
2022/08/04 00:08:10;;;;;;;6.70;5.47;;;23.40;80.20;;;;;;2087591;28;20037;-72
2022/08/04 00:09:20;;;;;;;7.03;5.55;;;23.40;80.60;;;;;;2093536;28;20052;-73
2022/08/04 00:10:21;;;;;;;6.47;5.40;;;23.40;80.50;;;;;;2105915;28;20501;-73
2022/08/04 00:11:25;;;;;;;6.05;5.45;;;23.40;80.60;;;;;;2105936;28;20105;-72
2022/08/04 00:12:32;;;;;;;7.07;5.55;;;23.40;80.70;;;;;;2106007;28;20401;-73
2022/08/04 00:13:38;;;;;;;6.75;6.05;;;23.30;80.70;;;;;;2105806;28;20035;-73
2022/08/04 00:14:47;;;;;;;6.35;5.68;;;23.30;81.60;;;;;;2105765;28;20031;-72
2022/08/04 00:15:56;;;;;;;7.40;5.75;;;23.30;81.00;;;;;;2105719;28;20035;-73
2022/08/04 00:16:57;;;;;;;6.05;5.53;;;23.30;81.10;;;;;;2105766;28;20012;-73
2022/08/04 00:18:03;;;;;;;6.22;5.63;;;23.30;81.20;;;;;;2105601;28;20614;-72
2022/08/04 00:19:09;;;;;;;6.13;5.53;;;23.20;81.20;;;;;;2105755;28;20035;-74
2022/08/04 00:20:18;;;;;;;7.18;5.80;;;23.20;81.20;;;;;;2105576;28;20028;-72
2022/08/04 00:21:21;;;;;;;6.20;5.60;;;23.20;81.30;;;;;;2096784;28;20478;-72
2022/08/04 00:22:26;;;;;;;6.18;5.68;;;23.20;81.30;;;;;;2097224;28;20024;-72
2022/08/04 00:23:28;;;;;;;7.93;6.10;;;23.20;81.30;;;;;;2106021;28;20038;-72
2022/08/04 00:24:34;;;;;;;7.10;5.55;;;23.20;81.50;;;;;;2106319;28;20508;-72
2022/08/04 00:25:39;;;;;;;6.18;5.60;;;23.20;81.40;;;;;;2105806;28;20062;-71
2022/08/04 00:26:44;;;;;;;6.43;5.85;;;23.10;81.50;;;;;;2106043;28;20028;-73
2022/08/04 00:27:45;;;;;;;6.35;5.75;;;23.10;81.60;;;;;;2105478;28;20038;-74
2022/08/04 00:28:47;;;;;;;6.60;5.93;;;23.10;81.70;;;;;;2105394;28;20025;-73
2022/08/04 00:29:48;;;;;;;7.50;6.00;;;23.10;81.80;;;;;;2105637;28;20069;-73
2022/08/04 00:30:50;;;;;;;9.50;5.80;;;23.10;81.90;;;;;;2096716;28;20078;-72
2022/08/04 00:31:52;;;;;;;6.80;6.00;;;23.10;81.90;;;;;;2096956;28;20066;-73
2022/08/04 00:32:54;;;;;;;6.32;5.72;;;23.00;82.10;;;;;;2096552;28;20107;-72
2022/08/04 00:33:55;;;;;;;6.20;5.60;;;23.00;82.10;;;;;;2096552;28;20036;-72
2022/08/04 00:34:59;;;;;;;6.35;5.75;;;23.00;82.10;;;;;;2096445;28;20033;-73
2022/08/04 00:36:01;;;;;;;6.32;5.70;;;23.00;82.30;;;;;;2096872;28;20402;-73
2022/08/04 00:37:04;;;;;;;6.63;5.95;;;23.00;82.30;;;;;;2105356;28;20032;-73
2022/08/04 00:38:07;;;;;;;8.43;6.05;;;23.00;82.30;;;;;;2096513;28;20100;-72
2022/08/04 00:39:11;;;;;;;6.50;5.90;;;23.00;82.40;;;;;;2088307;28;20075;-73
2022/08/04 00:40:31;;;;;;;7.05;6.20;;;23.00;82.60;;;;;;2096948;28;20036;-73
2022/08/04 00:41:55;;;;;;;7.50;6.28;;;23.00;82.70;;;;;;2105399;28;20493;-73
2022/08/04 00:43:31;;;;;;;6.68;6.07;;;22.90;82.80;;;;;;2105217;28;20471;-73
2022/08/04 00:44:37;;;;;;;6.55;5.90;;;22.90;82.90;;;;;;2096526;28;20048;-72
2022/08/04 00:46:04;;;;;;;6.53;5.68;;;22.90;83.20;;;;;;2096226;28;20182;-72
2022/08/04 00:47:20;;;;;;;6.95;6.35;;;22.90;83.20;;;;;;2100365;28;20012;-73
2022/08/04 00:48:45;;;;;;;7.95;6.72;;;22.90;83.20;;;;;;2096321;28;20032;-73
2022/08/04 00:49:59;;;;;;;7.22;6.50;;;22.90;83.40;;;;;;2091404;28;20473;-73
2022/08/04 00:51:14;;;;;;;7.30;6.60;;;22.90;83.50;;;;;;2098431;28;20062;-73
2022/08/04 00:52:26;;;;;;;7.22;6.50;;;22.90;83.50;;;;;;2096202;28;20661;-71
2022/08/04 00:53:49;;;;;;;7.28;6.55;;;22.80;83.50;;;;;;2098180;28;20056;-73
2022/08/04 00:55:02;;;;;;;7.00;6.22;;;22.80;83.70;;;;;;2096177;28;20036;-71
2022/08/04 00:56:35;;;;;;;7.47;6.70;;;22.80;83.80;;;;;;2089775;28;20017;-72
2022/08/04 00:58:07;;;;;;;7.20;6.30;;;22.70;83.90;;;;;;2100969;28;20113;-72
2022/08/04 00:59:55;;;;;;;7.18;6.40;;;22.70;84.00;;;;;;2096341;28;20044;-72
2022/08/04 01:01:05;;;;;;;7.43;6.07;;;22.70;84.10;;;;;;2087579;28;20032;-72
2022/08/04 01:02:24;;;;;;;6.80;6.10;;;22.70;84.10;;;;;;2105519;28;20023;-72
2022/08/04 01:04:04;;;;;;;7.38;6.25;;;22.70;84.20;;;;;;2105499;28;20028;-73
2022/08/04 01:05:14;;;;;;;6.88;6.18;;;22.60;84.40;;;;;;2105445;28;20044;-73
2022/08/04 01:06:33;;;;;;;7.25;6.47;;;22.60;84.40;;;;;;2087943;28;20033;-73
2022/08/04 01:07:53;;;;;;;7.00;6.40;;;22.60;84.60;;;;;;2092833;28;20561;-72
2022/08/04 01:09:22;;;;;;;7.60;6.35;;;22.60;84.70;;;;;;2105300;28;20020;-73
2022/08/04 01:10:30;;;;;;;7.35;6.60;;;22.60;85.00;;;;;;2102248;28;20040;-73
2022/08/04 01:11:33;;;;;;;6.78;6.15;;;22.60;84.90;;;;;;2105265;28;20474;-73
2022/08/04 01:12:55;;;;;;;6.88;6.18;;;22.60;85.00;;;;;;2105318;28;20063;-72
2022/08/04 01:14:07;;;;;;;7.15;6.35;;;22.50;85.10;;;;;;2105433;28;20028;-73
2022/08/04 01:15:25;;;;;;;8.93;6.30;;;22.50;85.30;;;;;;2105342;28;20032;-72
2022/08/04 01:16:26;;;;;;;6.68;6.05;;;22.50;85.30;;;;;;2105286;28;20024;-73
2022/08/04 01:17:44;;;;;;;7.22;6.38;;;22.50;85.40;;;;;;2095847;28;20025;-73
2022/08/04 01:19:17;;;;;;;8.20;6.63;;;22.50;85.40;;;;;;2098804;28;20041;-73
2022/08/04 01:20:24;;;;;;;9.85;8.85;;;22.50;85.50;;;;;;2096509;28;20059;-73
2022/08/04 01:21:28;;;;;;;9.63;8.60;;;22.50;85.70;;;;;;2097042;28;20032;-72
2022/08/04 01:22:32;;;;;;;8.90;7.80;;;22.50;85.70;;;;;;2105373;28;20490;-77
2022/08/04 01:24:13;;;;;;;7.72;7.03;;;22.50;85.80;;;;;;2096383;28;20123;-72
2022/08/04 01:25:45;;;;;;;7.88;7.07;;;22.50;86.00;;;;;;2079826;28;20686;-72
2022/08/04 01:27:12;;;;;;;7.55;6.80;;;22.40;86.20;;;;;;2096284;28;20127;-72
2022/08/04 01:28:38;;;;;;;7.95;7.15;;;22.40;86.80;;;;;;2099847;28;20031;-73
2022/08/04 01:29:49;;;;;;;7.18;6.47;;;22.40;86.60;;;;;;2105424;28;20039;-73
2022/08/04 01:30:55;;;;;;;7.13;6.43;;;22.40;86.70;;;;;;2096279;28;20032;-73
2022/08/04 01:32:01;;;;;;;7.65;6.90;;;22.40;86.70;;;;;;2097296;28;20024;-73
2022/08/04 01:33:07;;;;;;;7.97;6.55;;;22.30;86.70;;;;;;2105181;28;20474;-73
2022/08/04 01:34:12;;;;;;;10.73;6.32;;;22.40;86.90;;;;;;2105216;28;20024;-73
2022/08/04 01:35:39;;;;;;;7.30;6.50;;;22.30;86.90;;;;;;2105172;28;20024;-73
2022/08/04 01:36:45;;;;;;;8.48;6.43;;;22.30;86.90;;;;;;2091606;28;20064;-72
2022/08/04 01:38:21;;;;;;;7.55;6.47;;;22.30;87.10;;;;;;2104873;28;20047;-73
2022/08/04 01:39:40;;;;;;;7.65;6.95;;;22.30;87.20;;;;;;2083119;28;20028;-73
2022/08/04 01:40:43;;;;;;;7.20;6.50;;;22.30;87.30;;;;;;2105101;28;20031;-73
2022/08/04 01:41:44;;;;;;;7.10;6.50;;;22.30;87.50;;;;;;2104940;28;20028;-73
2022/08/04 01:42:45;;;;;;;9.10;6.70;;;22.30;87.60;;;;;;2096186;28;20048;-73
2022/08/04 01:43:46;;;;;;;7.10;6.40;;;22.20;87.80;;;;;;2096283;28;20047;-73
2022/08/04 01:44:48;;;;;;;6.80;6.10;;;22.20;87.90;;;;;;2105167;28;20494;-73
2022/08/04 01:45:56;;;;;;;7.70;6.63;;;22.20;88.80;;;;;;2087974;28;20033;-72
2022/08/04 01:47:00;;;;;;;7.28;6.43;;;22.20;88.10;;;;;;2089967;28;20551;-72
2022/08/04 01:48:02;;;;;;;7.30;6.43;;;22.20;88.20;;;;;;2104700;28;20032;-73
2022/08/04 01:49:05;;;;;;;7.00;6.30;;;22.20;88.40;;;;;;2105362;28;20118;-74
2022/08/04 01:50:08;;;;;;;6.90;6.20;;;22.20;88.50;;;;;;2105182;28;20443;-72
2022/08/04 01:51:09;;;;;;;7.80;6.80;;;22.20;88.60;;;;;;2096375;28;20262;-72
2022/08/04 01:52:13;;;;;;;7.32;6.25;;;22.20;88.80;;;;;;2096544;28;20750;-73
2022/08/04 01:53:15;;;;;;;7.25;6.55;;;22.10;88.70;;;;;;2096447;28;20094;-72
2022/08/04 01:54:17;;;;;;;7.13;6.43;;;22.10;88.80;;;;;;2097271;28;20032;-72
2022/08/04 01:55:19;;;;;;;7.50;6.72;;;22.20;89.00;;;;;;2107137;28;20031;-73
2022/08/04 01:56:21;;;;;;;7.32;6.63;;;22.10;89.00;;;;;;2097614;28;20029;-73
2022/08/04 01:57:23;;;;;;;8.30;6.82;;;22.10;89.20;;;;;;2097957;28;20036;-72
2022/08/04 01:58:27;;;;;;;7.32;6.60;;;22.10;89.20;;;;;;2097618;28;20048;-73
2022/08/04 01:59:30;;;;;;;7.40;6.70;;;22.10;89.30;;;;;;2098379;28;20020;-72
2022/08/04 02:00:31;;;;;;;7.45;6.65;;;22.10;89.30;;;;;;2106915;28;20054;-73
2022/08/04 02:01:35;;;;;;;7.95;6.82;;;22.10;89.50;;;;;;2106993;28;20028;-71
2022/08/04 02:02:35;;;;;;;7.43;6.68;;;22.10;89.40;;;;;;2106726;28;20060;-72
2022/08/04 02:03:44;;;;;;;8.73;6.65;;;22.10;89.50;;;;;;2106599;28;20020;-72
2022/08/04 02:04:45;;;;;;;8.07;6.57;;;22.10;89.60;;;;;;2097798;28;20036;-72
2022/08/04 02:05:49;;;;;;;7.93;7.03;;;22.00;89.70;;;;;;2097932;28;20044;-73
2022/08/04 02:07:14;;;;;;;9.05;7.00;;;22.00;89.80;;;;;;2106934;28;20028;-72
2022/08/04 02:08:54;;;;;;;8.10;7.03;;;22.00;89.80;;;;;;2106176;28;20420;-72
2022/08/04 02:10:03;;;;;;;7.25;6.53;;;22.00;90.00;;;;;;2102661;28;20032;-72
2022/08/04 02:11:20;;;;;;;6.95;6.25;;;22.00;90.10;;;;;;2097801;28;20066;-71
2022/08/04 02:12:35;;;;;;;7.88;6.50;;;22.00;90.10;;;;;;2100004;28;20035;-72
2022/08/04 02:13:50;;;;;;;7.18;6.53;;;22.00;90.20;;;;;;2097610;28;20039;-71
2022/08/04 02:15:12;;;;;;;9.48;6.72;;;22.00;90.30;;;;;;2099687;28;20496;-74
2022/08/04 02:16:35;;;;;;;7.55;6.82;;;21.90;90.20;;;;;;2106845;28;20058;-72
2022/08/04 02:17:59;;;;;;;7.50;6.80;;;21.90;90.30;;;;;;2106710;28;20032;-72
2022/08/04 02:19:13;;;;;;;8.15;7.35;;;21.90;90.40;;;;;;2106522;28;20031;-72
2022/08/04 02:20:24;;;;;;;7.60;6.68;;;21.90;90.40;;;;;;2097642;28;20052;-72
2022/08/04 02:21:26;;;;;;;7.53;6.70;;;21.90;90.50;;;;;;2099387;28;20881;-73
2022/08/04 02:22:27;;;;;;;7.88;7.07;;;21.90;90.50;;;;;;2106480;28;20069;-73
2022/08/04 02:23:35;;;;;;;7.85;7.07;;;21.90;90.50;;;;;;2106391;28;20064;-73
2022/08/04 02:24:45;;;;;;;7.32;6.63;;;21.90;90.60;;;;;;2106628;28;20375;-73
2022/08/04 02:25:47;;;;;;;;;;;21.90;90.60;;;;;;2107084;28;20036;-73
2022/08/04 02:26:50;;;;;;;7.57;6.68;;;21.90;90.70;;;;;;2106537;28;19904;-73
2022/08/04 02:28:14;;;;;;;8.00;7.20;;;21.80;90.70;;;;;;2106661;28;20031;-72
2022/08/04 02:29:45;;;;;;;7.50;6.70;;;21.80;90.70;;;;;;2106596;28;20765;-71
2022/08/04 02:31:02;;;;;;;7.93;7.10;;;21.80;90.80;;;;;;2062709;28;20035;-72
2022/08/04 02:32:05;;;;;;;7.57;6.88;;;21.80;90.90;;;;;;2099734;28;20043;-73
2022/08/04 02:33:09;;;;;;;7.60;6.90;;;21.80;91.00;;;;;;2106561;28;20490;-72
2022/08/04 02:34:43;;;;;;;7.40;6.70;;;21.80;91.00;;;;;;2106057;28;20082;-72
2022/08/04 02:35:46;;;;;;;8.88;7.22;;;21.70;91.10;;;;;;2106521;28;20069;-73
2022/08/04 02:36:49;;;;;;;7.65;6.95;;;21.80;91.20;;;;;;2097065;28;20044;-73
2022/08/04 02:38:02;;;;;;;8.10;7.30;;;21.70;91.30;;;;;;2089358;28;20025;-72
2022/08/04 02:39:05;;;;;;;8.68;7.00;;;21.70;91.40;;;;;;2099237;28;20055;-73
2022/08/04 02:40:10;;;;;;;7.65;6.90;;;21.70;91.40;;;;;;2106222;28;20026;-73
2022/08/04 02:41:13;;;;;;;8.10;7.30;;;21.70;91.50;;;;;;2097567;28;20108;-72
2022/08/04 02:42:14;;;;;;;7.78;6.97;;;21.70;91.60;;;;;;2097617;28;20551;-73
2022/08/04 02:43:19;;;;;;;8.27;7.43;;;21.70;91.60;;;;;;2089239;28;20028;-73
2022/08/04 02:44:21;;;;;;;10.50;9.50;;;21.70;91.70;;;;;;2090532;28;20029;-73
2022/08/04 02:45:24;;;;;;;9.85;8.88;;;21.60;91.70;;;;;;2106100;28;20479;-73
2022/08/04 02:46:26;;;;;;;9.48;8.48;;;21.60;91.80;;;;;;2106365;28;20078;-73
2022/08/04 02:47:28;;;;;;;9.63;8.20;;;21.60;91.90;;;;;;2108812;28;20039;-73
2022/08/04 02:48:33;;;;;;;8.75;7.85;;;21.60;92.30;;;;;;2109087;28;20112;-73
2022/08/04 02:49:37;;;;;;;8.82;7.75;;;21.60;91.90;;;;;;2100297;28;20617;-73
2022/08/04 02:50:39;;;;;;;9.25;7.70;;;21.60;91.90;;;;;;2097876;28;20068;-72
2022/08/04 02:51:43;;;;;;;8.13;7.15;;;21.60;92.00;;;;;;2106895;28;20059;-72
2022/08/04 02:52:46;;;;;;;8.10;7.32;;;21.60;92.10;;;;;;2106331;28;20508;-73
2022/08/04 02:53:51;;;;;;;9.18;7.43;;;21.60;92.10;;;;;;2106554;28;20439;-73
2022/08/04 02:54:54;;;;;;;9.38;7.57;;;21.60;92.20;;;;;;2106333;28;20043;-72
2022/08/04 02:55:56;;;;;;;7.82;7.13;;;21.60;92.20;;;;;;2106112;28;20024;-73
2022/08/04 02:56:59;;;;;;;8.40;7.43;;;21.60;92.30;;;;;;2096954;28;20028;-73
2022/08/04 02:58:03;;;;;;;8.48;7.40;;;21.50;92.30;;;;;;2097496;28;20017;-72
2022/08/04 02:59:09;;;;;;;10.85;7.35;;;21.50;92.40;;;;;;2106500;28;20085;-74
2022/08/04 03:00:16;;;;;;;10.15;7.45;;;21.50;92.40;;;;;;2097364;28;20770;-73
2022/08/04 03:01:17;;;;;;;8.23;7.10;;;21.50;92.50;;;;;;2081579;28;20033;-73
2022/08/04 03:02:27;;;;;;;10.15;7.55;;;21.50;92.50;;;;;;2089119;28;20025;-73
2022/08/04 03:03:44;;;;;;;9.00;7.25;;;21.50;92.50;;;;;;2106425;28;20020;-72
2022/08/04 03:05:15;;;;;;;9.60;7.47;;;21.50;92.60;;;;;;2106144;28;20039;-72
2022/08/04 03:06:50;;;;;;;9.20;7.47;;;21.50;92.70;;;;;;2105879;28;20024;-72
2022/08/04 03:08:18;;;;;;;8.48;7.22;;;21.40;92.80;;;;;;2105740;28;20032;-73
2022/08/04 03:09:53;;;;;;;7.97;7.22;;;21.40;92.90;;;;;;2097302;28;20115;-73
2022/08/04 03:11:04;;;;;;;8.23;7.35;;;21.40;93.10;;;;;;2066275;28;20037;-73
2022/08/04 03:12:28;;;;;;;8.27;7.32;;;21.40;93.20;;;;;;2098746;28;20122;-74
2022/08/04 03:13:31;;;;;;;8.07;7.30;;;21.40;93.30;;;;;;2106237;28;20020;-73
2022/08/04 03:15:01;;;;;;;9.00;7.32;;;21.40;93.30;;;;;;2107410;28;20039;-74
2022/08/04 03:16:18;;;;;;;9.00;7.60;;;21.40;93.40;;;;;;2100760;28;20103;-73
2022/08/04 03:17:35;;;;;;;9.32;7.63;;;21.40;93.50;;;;;;2104758;28;20113;-72
2022/08/04 03:18:41;;;;;;;8.85;7.47;;;21.40;93.60;;;;;;2111026;28;20039;-73
2022/08/04 03:19:57;;;;;;;8.68;7.78;;;21.40;93.60;;;;;;2112031;28;20093;-73
2022/08/04 03:21:39;;;;;;;9.02;7.60;;;21.40;93.70;;;;;;2101737;28;20024;-73
2022/08/04 03:23:05;;;;;;;8.02;7.22;;;21.30;93.70;;;;;;2104132;28;20510;-73
2022/08/04 03:24:15;;;;;;;10.07;7.40;;;21.30;93.80;;;;;;2106530;28;20044;-72
2022/08/04 03:25:35;;;;;;;;;;;21.30;93.90;;;;;;2106836;28;20218;-73
2022/08/04 03:27:13;;;;;;;9.60;8.05;;;21.30;94.00;;;;;;2105953;28;20014;-73
2022/08/04 03:28:19;;;;;;;10.30;9.05;;;21.30;94.00;;;;;;2105604;28;20049;-73
2022/08/04 03:30:04;;;;;;;9.80;8.55;;;21.30;94.00;;;;;;2096795;28;20032;-73
2022/08/04 03:31:24;;;;;;;9.90;8.85;;;21.30;94.20;;;;;;2103729;28;20020;-73
2022/08/04 03:32:39;;;;;;;9.98;8.93;;;21.30;94.30;;;;;;2106182;28;20024;-73
2022/08/04 03:34:09;;;;;;;10.27;9.20;;;21.30;94.30;;;;;;2097169;28;20039;-73
2022/08/04 03:35:13;;;;;;;10.18;8.88;;;21.30;94.40;;;;;;2101561;28;20040;-73
2022/08/04 03:36:50;;;;;;;10.57;8.80;;;21.30;94.50;;;;;;2097243;28;20761;-73
2022/08/04 03:38:06;;;;;;;11.48;8.77;;;21.30;94.70;;;;;;2102071;28;20036;-73
2022/08/04 03:39:35;;;;;;;10.25;8.48;;;21.30;94.80;;;;;;2106167;28;20106;-73
2022/08/04 03:41:06;;;;;;;10.00;8.27;;;21.30;94.80;;;;;;2105892;28;20028;-72
2022/08/04 03:42:25;;;;;;;10.45;7.97;;;21.30;94.80;;;;;;2106129;28;20024;-72
2022/08/04 03:44:00;;;;;;;8.75;7.75;;;21.30;94.80;;;;;;2096962;28;20094;-73
2022/08/04 03:45:25;;;;;;;8.90;8.00;;;21.30;94.80;;;;;;2102016;28;20035;-73
2022/08/04 03:46:47;;;;;;;9.02;7.63;;;21.30;94.80;;;;;;2105914;28;20548;-73
2022/08/04 03:48:15;;;;;;;9.23;7.15;;;21.40;94.90;;;;;;2106765;28;20040;-72
2022/08/04 03:49:42;;;;;;;11.15;7.57;;;21.40;94.90;;;;;;2088449;28;20400;-73
2022/08/04 03:50:46;;;;;;;7.97;7.18;;;21.40;94.90;;;;;;2095650;28;20043;-73
2022/08/04 03:53:49;;;;;;;8.35;7.47;;;21.40;95.00;;;;;;2096974;28;20036;-71
2022/08/04 03:55:05;;;;;;;10.57;7.65;;;21.40;95.00;;;;;;2099560;28;20060;-72
2022/08/04 03:56:45;;;;;;;8.77;7.57;;;21.40;95.00;;;;;;2096976;28;20897;-71
2022/08/04 03:57:53;;;;;;;7.97;7.18;;;21.40;95.40;;;;;;2091690;28;20039;-72
2022/08/04 03:59:15;;;;;;;9.10;7.80;;;21.40;95.10;;;;;;2106084;28;20465;-72
2022/08/04 04:00:21;;;;;;;8.23;7.43;;;21.50;95.10;;;;;;2103693;28;20207;-73
2022/08/04 04:01:54;;;;;;;8.00;7.20;;;21.50;95.10;;;;;;2106057;28;20020;-73
2022/08/04 04:02:54;;;;;;;8.93;7.63;;;21.50;95.10;;;;;;2097127;28;20486;-73
2022/08/04 04:04:01;;;;;;;7.97;6.95;;;21.50;95.20;;;;;;2097417;28;20025;-72
2022/08/04 04:05:32;;;;;;;8.32;7.50;;;21.50;95.20;;;;;;2097193;28;20536;-73
2022/08/04 04:06:43;;;;;;;9.13;7.00;;;21.50;95.10;;;;;;2104241;28;20043;-73
2022/08/04 04:08:07;;;;;;;8.25;7.20;;;21.60;95.20;;;;;;2106573;28;20541;-73
2022/08/04 04:09:16;;;;;;;9.15;7.13;;;21.60;95.20;;;;;;2107606;28;20076;-73
2022/08/04 04:10:53;;;;;;;7.60;6.82;;;21.60;95.20;;;;;;2107050;28;20020;-73
2022/08/04 04:12:34;;;;;;;8.65;7.40;;;21.60;95.20;;;;;;2105979;28;20028;-73
2022/08/04 04:14:01;;;;;;;7.72;7.00;;;21.60;95.20;;;;;;2105983;28;20114;-73
2022/08/04 04:15:39;;;;;;;7.90;7.10;;;21.70;95.10;;;;;;2105596;28;20772;-74
2022/08/04 04:17:00;;;;;;;8.80;7.13;;;21.70;95.10;;;;;;2105494;28;20020;-73
2022/08/04 04:18:17;;;;;;;8.38;7.30;;;21.70;94.90;;;;;;2105131;28;20494;-73
2022/08/04 04:19:38;;;;;;;8.35;7.55;;;21.80;94.90;;;;;;2096387;28;20031;-74
2022/08/04 04:20:58;;;;;;;9.70;7.50;;;21.80;94.80;;;;;;2100163;28;20075;-73
2022/08/04 04:22:34;;;;;;;8.95;7.35;;;21.80;94.70;;;;;;2089074;28;20658;-71
2022/08/04 04:23:59;;;;;;;9.02;7.55;;;21.90;94.70;;;;;;2090614;28;20086;-73
2022/08/04 04:25:09;;;;;;;8.73;7.13;;;22.20;94.30;;;;;;2094397;28;20043;-72
2022/08/04 04:26:31;;;;;;;8.57;6.57;;;22.50;93.80;;;;;;2090733;28;20040;-73
2022/08/04 04:27:50;;;;;;;9.23;6.75;;;22.90;93.10;;;;;;2096127;28;20081;-73
2022/08/04 04:28:53;;;;;;;8.95;6.90;;;23.20;92.50;;;;;;2089016;28;20041;-74
2022/08/04 04:30:22;;;;;;;9.10;6.45;;;23.30;92.00;;;;;;2090130;28;20025;-73
2022/08/04 04:32:05;;;;;;;10.57;6.88;;;23.40;91.50;;;;;;2097623;28;20101;-73
2022/08/04 04:33:09;;;;;;;7.63;6.70;;;23.60;90.60;;;;;;2104798;28;20123;-72
2022/08/04 04:34:34;;;;;;;7.20;6.40;;;24.00;90.20;;;;;;2107696;28;20070;-73
2022/08/04 04:35:52;;;;;;;6.78;6.07;;;24.40;88.90;;;;;;2098990;28;20035;-73
2022/08/04 04:37:15;;;;;;;6.95;5.95;;;24.80;87.40;;;;;;2101041;28;20024;-75
2022/08/04 04:38:48;;;;;;;6.88;6.15;;;25.30;84.80;;;;;;2096610;28;20094;-73
2022/08/04 04:39:58;;;;;;;8.90;6.28;;;25.60;83.00;;;;;;2096824;28;20060;-73
2022/08/04 04:41:04;;;;;;;10.23;6.15;;;25.90;81.10;;;;;;2096978;28;20545;-72
2022/08/04 04:42:30;;;;;;;8.98;6.47;;;26.10;80.40;;;;;;2099093;28;20034;-73
2022/08/04 04:43:55;;;;;;;8.82;6.32;;;26.30;78.20;;;;;;2088658;28;20116;-72
2022/08/04 04:45:09;;;;;;;9.80;6.10;;;26.50;77.20;;;;;;2094124;28;20141;-72
2022/08/04 04:46:29;;;;;;;9.02;5.68;;;26.70;76.80;;;;;;2111481;28;20477;-73
2022/08/04 04:47:52;;;;;;;8.77;6.13;;;26.80;75.60;;;;;;2096648;28;20090;-72
2022/08/04 04:49:24;;;;;;;7.43;5.70;;;27.00;74.40;;;;;;2102205;28;20032;-72
2022/08/04 04:50:47;;;;;;;6.78;5.50;;;27.30;73.80;;;;;;2110493;28;20024;-73
2022/08/04 04:52:19;;;;;;;6.20;5.70;;;27.40;72.60;;;;;;2090636;28;20063;-73
2022/08/04 04:53:19;;;;;;;6.75;5.30;;;27.60;71.60;;;;;;2099202;28;20043;-73
2022/08/04 04:54:42;;;;;;;6.07;5.40;;;27.80;70.90;;;;;;2090151;28;20024;-71
2022/08/04 04:55:50;;;;;;;7.45;5.40;;;27.90;70.10;;;;;;2091471;28;20063;-73
2022/08/04 04:57:08;;;;;;;7.28;5.38;;;27.90;69.20;;;;;;2097456;28;20025;-72
2022/08/04 04:58:13;;;;;;;6.60;5.38;;;28.00;68.50;;;;;;2096561;28;20031;-72
2022/08/04 04:59:20;;;;;;;9.45;5.75;;;28.10;68.20;;;;;;2090916;28;20029;-71
2022/08/04 05:00:25;;;;;;;5.60;4.88;;;28.20;67.80;;;;;;2099165;28;20079;-72
2022/08/04 05:01:50;;;;;;;5.88;4.80;;;28.40;67.40;;;;;;2098020;28;20054;-72
2022/08/04 05:03:23;;;;;;;9.52;5.18;;;28.50;66.60;;;;;;2100398;28;20044;-72
2022/08/04 05:04:59;;;;;;;6.28;5.50;;;28.70;66.00;;;;;;2096662;28;20020;-71
2022/08/04 05:06:16;;;;;;;6.63;5.07;;;28.80;65.00;;;;;;2101186;28;20036;-74
2022/08/04 05:07:56;;;;;;;7.97;5.20;;;28.90;64.80;;;;;;2104936;28;20032;-74
2022/08/04 05:09:24;;;;;;;7.93;5.28;;;29.00;64.30;;;;;;2097596;28;20025;-73
2022/08/04 05:10:31;;;;;;;7.00;4.90;;;29.10;63.70;;;;;;2100202;28;20024;-73
2022/08/04 05:12:04;;;;;;;8.48;5.00;;;29.20;63.20;;;;;;2105076;28;20070;-71
2022/08/04 05:13:11;;;;;;;6.03;4.88;;;29.20;62.80;;;;;;2105386;28;20039;-73
2022/08/04 05:14:32;;;;;;;6.25;5.25;;;29.20;62.30;;;;;;2105674;28;20072;-72
2022/08/04 05:15:38;;;;;;;7.55;5.25;;;29.30;62.30;;;;;;2105106;28;20063;-70
2022/08/04 05:16:43;;;;;;;6.65;5.28;;;29.20;61.80;;;;;;2105645;28;20077;-70
2022/08/04 05:17:51;;;;;;;8.65;5.18;;;29.20;61.80;;;;;;2105191;28;20044;-70
2022/08/04 05:19:09;;;;;;;8.48;4.70;;;29.20;61.40;;;;;;2105264;28;20032;-70
2022/08/04 05:20:15;;;;;;;7.85;4.70;;;29.10;61.50;;;;;;2105373;28;20069;-70
2022/08/04 05:21:42;;;;;;;6.82;4.72;;;29.10;61.70;;;;;;2105141;28;20530;-73
2022/08/04 05:22:51;;;;;;;9.20;5.20;;;29.20;61.10;;;;;;2105375;28;20455;-71
2022/08/04 05:23:59;;;;;;;13.57;5.38;;;29.20;61.10;;;;;;2096648;28;20124;-74
2022/08/04 05:25:13;;;;;;;9.98;5.40;;;29.30;60.70;;;;;;2097484;28;20025;-71
2022/08/04 05:26:17;;;;;;;7.57;4.82;;;29.30;60.30;;;;;;2104977;28;20032;-73
2022/08/04 05:27:29;;;;;;;9.43;4.93;;;29.30;60.00;;;;;;2105352;28;20050;-73
2022/08/04 05:28:40;;;;;;;8.57;5.03;;;29.30;60.30;;;;;;2105173;28;20036;-79
2022/08/04 05:29:51;;;;;;;6.18;4.75;;;29.20;60.60;;;;;;2097477;28;20379;-76
2022/08/04 05:31:02;;;;;;;5.93;5.10;;;29.30;60.30;;;;;;2097662;28;20923;-76
2022/08/04 05:32:11;;;;;;;6.00;4.60;;;29.40;59.70;;;;;;2090484;28;20021;-77
2022/08/04 05:33:15;;;;;;;7.13;5.05;;;29.50;59.80;;;;;;2098270;28;20447;-77
2022/08/04 05:34:41;;;;;;;7.13;4.72;;;29.60;59.80;;;;;;2097287;28;20045;-75
2022/08/04 05:35:48;;;;;;;5.75;5.05;;;29.70;59.30;;;;;;2080389;28;20043;-75
2022/08/04 05:36:53;;;;;;;5.90;4.72;;;29.70;59.20;;;;;;2083036;28;20400;-78
2022/08/04 05:37:55;;;;;;;5.75;4.68;;;29.90;59.10;;;;;;2090852;28;20020;-77
2022/08/04 05:39:02;;;;;;;5.45;4.75;;;30.00;58.70;;;;;;2097688;28;20043;-78
2022/08/04 05:40:08;;;;;;;8.32;4.85;;;30.10;58.40;;;;;;2096936;28;20534;-77
2022/08/04 05:41:10;;;;;;;8.80;4.95;;;30.20;58.30;;;;;;2097996;28;20033;-77
2022/08/04 05:42:11;;;;;;;5.60;4.60;;;30.20;58.10;;;;;;2105727;28;20102;-77
2022/08/04 05:43:13;;;;;;;8.60;4.80;;;30.10;58.00;;;;;;2106083;28;20673;-78
2022/08/04 05:44:19;;;;;;;6.90;4.78;;;30.10;58.20;;;;;;2097126;28;20032;-77
2022/08/04 05:45:40;;;;;;;;;;;;;;;;;;;;;
2022/08/04 05:47:10;;;;;;;6.70;4.40;;;30.10;58.10;;;;;;2101123;28;20012;-75
2022/08/04 05:48:11;;;;;;;5.05;4.50;;;30.10;58.00;;;;;;2105813;28;20028;-75
2022/08/04 05:49:13;;;;;;;5.30;4.10;;;30.20;58.00;;;;;;2105389;28;20486;-75
2022/08/04 05:50:14;;;;;;;6.10;4.80;;;30.30;57.40;;;;;;2105458;28;20482;-76
2022/08/04 05:51:15;;;;;;;4.97;4.43;;;30.30;57.20;;;;;;2105879;28;20367;-75
2022/08/04 05:52:17;;;;;;;5.15;4.65;;;30.30;57.30;;;;;;2105753;28;20062;-76
2022/08/04 05:53:19;;;;;;;5.38;4.50;;;30.40;57.30;;;;;;2106122;28;20292;-76
2022/08/04 05:54:21;;;;;;;5.63;4.80;;;30.50;57.20;;;;;;2105550;28;20024;-75
2022/08/04 05:55:23;;;;;;;6.20;4.45;;;30.40;56.90;;;;;;2096374;28;20036;-75
2022/08/04 05:56:24;;;;;;;5.18;4.20;;;30.30;57.50;;;;;;2096401;28;20108;-74
2022/08/04 05:57:26;;;;;;;4.93;4.10;;;30.40;57.40;;;;;;2104678;28;20020;-74
2022/08/04 05:58:29;;;;;;;5.78;4.40;;;30.50;57.20;;;;;;2104608;28;20028;-73
2022/08/04 05:59:31;;;;;;;6.07;4.50;;;30.60;56.90;;;;;;2096144;28;20025;-74
2022/08/04 06:00:34;;;;;;;9.45;4.68;;;30.60;56.80;;;;;;2096868;28;20040;-74
2022/08/04 06:01:37;;;;;;;6.07;4.80;;;30.70;56.90;;;;;;2095791;28;20031;-74
2022/08/04 06:02:38;;;;;;;5.07;4.57;;;30.70;56.60;;;;;;2088097;28;20025;-74
2022/08/04 06:03:42;;;;;;;8.52;4.70;;;30.60;56.50;;;;;;2096185;28;20036;-73
2022/08/04 06:04:47;;;;;;;6.55;4.63;;;30.60;56.60;;;;;;2105132;28;20058;-75
2022/08/04 06:05:49;;;;;;;7.40;4.40;;;30.60;56.60;;;;;;2104408;28;20077;-74
2022/08/04 06:06:51;;;;;;;6.13;4.50;;;30.50;56.50;;;;;;2107853;28;20793;-75
2022/08/04 06:08:00;;;;;;;11.50;4.68;;;30.40;56.80;;;;;;2099215;28;20109;-74
2022/08/04 06:09:07;;;;;;;6.90;4.50;;;30.50;56.80;;;;;;2110981;28;20028;-74
2022/08/04 06:10:09;;;;;;;6.35;4.80;;;30.50;56.80;;;;;;2119325;28;20026;-74
2022/08/04 06:11:12;;;;;;;8.85;5.05;;;30.40;56.70;;;;;;2101272;28;20166;-75
2022/08/04 06:12:22;;;;;;;5.15;4.43;;;30.30;57.20;;;;;;2102350;28;20128;-75
2022/08/04 06:13:29;;;;;;;6.37;4.43;;;30.20;57.50;;;;;;2105348;28;20024;-76
2022/08/04 06:14:37;;;;;;;6.88;4.68;;;30.10;57.70;;;;;;2104882;28;20513;-76
2022/08/04 06:15:41;;;;;;;6.63;4.90;;;29.80;58.10;;;;;;2095891;28;20028;-75
2022/08/04 06:16:44;;;;;;;7.90;4.95;;;29.50;58.80;;;;;;2095761;28;20028;-75
2022/08/04 06:17:50;;;;;;;9.13;4.80;;;29.10;59.60;;;;;;2088280;28;20049;-75
2022/08/04 06:18:53;;;;;;;6.60;4.50;;;28.70;60.10;;;;;;2088147;28;20096;-75
2022/08/04 06:19:55;;;;;;;14.85;5.05;;;28.50;61.10;;;;;;2096357;28;20029;-76
2022/08/04 06:20:59;;;;;;;8.73;4.80;;;28.30;61.60;;;;;;2105842;28;20062;-74
2022/08/04 06:22:03;;;;;;;11.05;5.15;;;28.10;62.70;;;;;;2106128;28;20386;-75